AGGM

Munda  Airport

Solomon Islands

AGGM 190600Z 00000KT 9999 HZ FEW018 BKN300 32/24 Q1006

Observed Flight Rules
Nov-19 @ 06:00 UTC (12 hours ago)
 
Visual Flight Rules
Wind Visibility Clouds Conditions
Calm 10,000+ meters
  • Few at 1,800' AGL
  • Broken at 30,000' AGL
  • Haze
Temperatures Readings
Current 32°C / 90°F
Dewpoint 24°C / 75°F
Humidity 63%
Altimeter 29.7" Hg
Pressure 1006 hPa
Elevation 6
Observed Flight Rules
Nov-19 @ 06:00 UTC
(12 hours ago)
 
VFR
Wind Visibility
Calm 10,000+ meters
Clouds
  • Few at 1,800' AGL
  • Broken at 30,000' AGL
Conditions
  • Haze
Temperature Dewpoint
32°C / 90°F 24°C / 75°F
Humidity Altimeter Pressure
63% 29.7" Hg 1006 hPa